sensor_id;sensor_type;location;lat;lon;timestamp;P1;durP1;ratioP1;P2;durP2;ratioP2
42742;SDS011;28397;44.552;-0.848;2023-10-13T00:01:31;14.57;;;12.38;;
42742;SDS011;28397;44.552;-0.848;2023-10-13T00:03:57;17.70;;;12.27;;
42742;SDS011;28397;44.552;-0.848;2023-10-13T00:06:22;15.40;;;12.48;;
42742;SDS011;28397;44.552;-0.848;2023-10-13T00:08:48;14.20;;;12.55;;
42742;SDS011;28397;44.552;-0.848;2023-10-13T00:11:15;15.52;;;12.27;;
42742;SDS011;28397;44.552;-0.848;2023-10-13T00:13:41;14.20;;;12.10;;
42742;SDS011;28397;44.552;-0.848;2023-10-13T00:16:19;13.88;;;12.30;;
42742;SDS011;28397;44.552;-0.848;2023-10-13T00:18:53;14.55;;;11.85;;
42742;SDS011;28397;44.552;-0.848;2023-10-13T00:21:22;18.35;;;12.60;;
42742;SDS011;28397;44.552;-0.848;2023-10-13T00:23:57;14.40;;;12.20;;
42742;SDS011;28397;44.552;-0.848;2023-10-13T00:26:26;16.60;;;11.82;;
42742;SDS011;28397;44.552;-0.848;2023-10-13T00:28:53;13.27;;;11.82;;
42742;SDS011;28397;44.552;-0.848;2023-10-13T00:31:31;12.90;;;11.60;;
42742;SDS011;28397;44.552;-0.848;2023-10-13T00:34:01;15.60;;;10.45;;
42742;SDS011;28397;44.552;-0.848;2023-10-13T00:36:45;13.43;;;10.82;;
42742;SDS011;28397;44.552;-0.848;2023-10-13T00:39:14;11.90;;;10.13;;
42742;SDS011;28397;44.552;-0.848;2023-10-13T00:41:43;13.13;;;10.05;;
42742;SDS011;28397;44.552;-0.848;2023-10-13T00:44:22;12.15;;;9.30;;
42742;SDS011;28397;44.552;-0.848;2023-10-13T00:47:02;12.27;;;9.45;;
42742;SDS011;28397;44.552;-0.848;2023-10-13T00:49:32;13.77;;;9.50;;
42742;SDS011;28397;44.552;-0.848;2023-10-13T00:52:03;14.23;;;8.70;;
42742;SDS011;28397;44.552;-0.848;2023-10-13T00:54:29;10.13;;;8.00;;
42742;SDS011;28397;44.552;-0.848;2023-10-13T00:56:55;11.23;;;8.40;;
42742;SDS011;28397;44.552;-0.848;2023-10-13T00:59:37;10.60;;;8.45;;
42742;SDS011;28397;44.552;-0.848;2023-10-13T01:02:02;12.38;;;8.68;;
42742;SDS011;28397;44.552;-0.848;2023-10-13T01:04:47;11.32;;;8.50;;
42742;SDS011;28397;44.552;-0.848;2023-10-13T01:07:13;11.85;;;8.38;;
42742;SDS011;28397;44.552;-0.848;2023-10-13T01:09:43;11.07;;;8.25;;
42742;SDS011;28397;44.552;-0.848;2023-10-13T01:12:12;12.25;;;8.60;;
42742;SDS011;28397;44.552;-0.848;2023-10-13T01:14:38;12.57;;;8.32;;
42742;SDS011;28397;44.552;-0.848;2023-10-13T01:17:04;13.15;;;8.07;;
42742;SDS011;28397;44.552;-0.848;2023-10-13T01:19:29;11.00;;;8.07;;
42742;SDS011;28397;44.552;-0.848;2023-10-13T01:21:55;9.52;;;8.00;;
42742;SDS011;28397;44.552;-0.848;2023-10-13T01:24:29;13.45;;;8.70;;
42742;SDS011;28397;44.552;-0.848;2023-10-13T01:26:59;10.80;;;8.50;;
42742;SDS011;28397;44.552;-0.848;2023-10-13T01:29:45;11.32;;;8.32;;
42742;SDS011;28397;44.552;-0.848;2023-10-13T01:32:16;11.18;;;8.32;;
42742;SDS011;28397;44.552;-0.848;2023-10-13T01:34:43;11.38;;;7.95;;
42742;SDS011;28397;44.552;-0.848;2023-10-13T01:37:13;10.80;;;8.07;;
42742;SDS011;28397;44.552;-0.848;2023-10-13T01:39:40;12.63;;;8.27;;
42742;SDS011;28397;44.552;-0.848;2023-10-13T01:42:06;12.85;;;8.20;;
42742;SDS011;28397;44.552;-0.848;2023-10-13T01:44:32;11.00;;;8.27;;
42742;SDS011;28397;44.552;-0.848;2023-10-13T01:46:58;13.18;;;7.72;;
42742;SDS011;28397;44.552;-0.848;2023-10-13T01:49:31;10.05;;;7.90;;
42742;SDS011;28397;44.552;-0.848;2023-10-13T01:52:06;14.95;;;8.45;;
42742;SDS011;28397;44.552;-0.848;2023-10-13T01:54:33;11.60;;;7.55;;
42742;SDS011;28397;44.552;-0.848;2023-10-13T01:56:58;12.48;;;7.72;;
42742;SDS011;28397;44.552;-0.848;2023-10-13T01:59:24;13.85;;;7.75;;
42742;SDS011;28397;44.552;-0.848;2023-10-13T02:01:51;13.43;;;7.70;;
42742;SDS011;28397;44.552;-0.848;2023-10-13T02:04:21;13.23;;;8.18;;
42742;SDS011;28397;44.552;-0.848;2023-10-13T02:06:47;12.38;;;7.60;;
42742;SDS011;28397;44.552;-0.848;2023-10-13T02:09:12;14.82;;;8.30;;
42742;SDS011;28397;44.552;-0.848;2023-10-13T02:11:42;12.15;;;7.72;;
42742;SDS011;28397;44.552;-0.848;2023-10-13T02:16:41;11.27;;;7.88;;
42742;SDS011;28397;44.552;-0.848;2023-10-13T02:19:07;11.07;;;7.68;;
42742;SDS011;28397;44.552;-0.848;2023-10-13T02:21:33;13.20;;;8.05;;
42742;SDS011;28397;44.552;-0.848;2023-10-13T02:24:06;11.98;;;7.78;;
42742;SDS011;28397;44.552;-0.848;2023-10-13T02:26:38;14.85;;;7.72;;
42742;SDS011;28397;44.552;-0.848;2023-10-13T02:29:05;9.27;;;7.53;;
42742;SDS011;28397;44.552;-0.848;2023-10-13T02:31:38;12.10;;;7.57;;
42742;SDS011;28397;44.552;-0.848;2023-10-13T02:34:05;13.07;;;7.63;;
42742;SDS011;28397;44.552;-0.848;2023-10-13T02:36:34;12.55;;;7.70;;
42742;SDS011;28397;44.552;-0.848;2023-10-13T02:39:14;10.57;;;7.75;;
42742;SDS011;28397;44.552;-0.848;2023-10-13T02:41:50;11.95;;;7.53;;
42742;SDS011;28397;44.552;-0.848;2023-10-13T02:44:16;10.02;;;7.32;;
42742;SDS011;28397;44.552;-0.848;2023-10-13T02:47:05;11.52;;;7.82;;
42742;SDS011;28397;44.552;-0.848;2023-10-13T02:49:38;10.07;;;7.85;;
42742;SDS011;28397;44.552;-0.848;2023-10-13T02:52:08;10.30;;;7.60;;
42742;SDS011;28397;44.552;-0.848;2023-10-13T02:54:34;10.45;;;7.20;;
42742;SDS011;28397;44.552;-0.848;2023-10-13T02:57:11;12.30;;;7.72;;
42742;SDS011;28397;44.552;-0.848;2023-10-13T02:59:38;10.80;;;7.78;;
42742;SDS011;28397;44.552;-0.848;2023-10-13T03:02:11;11.18;;;7.75;;
42742;SDS011;28397;44.552;-0.848;2023-10-13T03:04:57;9.38;;;8.07;;
42742;SDS011;28397;44.552;-0.848;2023-10-13T03:07:35;10.30;;;8.18;;
42742;SDS011;28397;44.552;-0.848;2023-10-13T03:10:01;13.45;;;8.23;;
42742;SDS011;28397;44.552;-0.848;2023-10-13T03:12:35;13.50;;;8.48;;
42742;SDS011;28397;44.552;-0.848;2023-10-13T03:15:13;11.50;;;8.38;;
42742;SDS011;28397;44.552;-0.848;2023-10-13T03:17:43;10.70;;;8.48;;
42742;SDS011;28397;44.552;-0.848;2023-10-13T03:20:09;10.30;;;8.65;;
42742;SDS011;28397;44.552;-0.848;2023-10-13T03:22:40;11.75;;;8.20;;
42742;SDS011;28397;44.552;-0.848;2023-10-13T03:25:10;9.32;;;8.20;;
42742;SDS011;28397;44.552;-0.848;2023-10-13T03:27:42;11.85;;;8.55;;
42742;SDS011;28397;44.552;-0.848;2023-10-13T03:30:17;16.00;;;9.02;;
42742;SDS011;28397;44.552;-0.848;2023-10-13T03:32:45;13.65;;;9.00;;
42742;SDS011;28397;44.552;-0.848;2023-10-13T03:35:12;10.18;;;8.30;;
42742;SDS011;28397;44.552;-0.848;2023-10-13T03:37:53;12.98;;;9.00;;
42742;SDS011;28397;44.552;-0.848;2023-10-13T03:40:19;12.80;;;9.05;;
42742;SDS011;28397;44.552;-0.848;2023-10-13T03:42:52;12.63;;;8.70;;
42742;SDS011;28397;44.552;-0.848;2023-10-13T03:45:35;15.70;;;8.90;;
42742;SDS011;28397;44.552;-0.848;2023-10-13T03:48:11;13.77;;;8.68;;
42742;SDS011;28397;44.552;-0.848;2023-10-13T03:50:53;10.98;;;8.60;;
42742;SDS011;28397;44.552;-0.848;2023-10-13T03:53:33;14.73;;;8.32;;
42742;SDS011;28397;44.552;-0.848;2023-10-13T03:56:05;11.60;;;8.43;;
42742;SDS011;28397;44.552;-0.848;2023-10-13T03:58:49;12.70;;;8.57;;
42742;SDS011;28397;44.552;-0.848;2023-10-13T04:01:14;15.43;;;8.30;;
42742;SDS011;28397;44.552;-0.848;2023-10-13T04:03:42;11.95;;;8.90;;
42742;SDS011;28397;44.552;-0.848;2023-10-13T04:06:28;11.35;;;8.40;;
42742;SDS011;28397;44.552;-0.848;2023-10-13T04:09:15;9.93;;;8.13;;
42742;SDS011;28397;44.552;-0.848;2023-10-13T04:12:08;12.50;;;8.32;;
42742;SDS011;28397;44.552;-0.848;2023-10-13T04:14:39;13.25;;;8.43;;
42742;SDS011;28397;44.552;-0.848;2023-10-13T04:17:05;14.45;;;8.45;;
42742;SDS011;28397;44.552;-0.848;2023-10-13T04:19:39;11.82;;;8.32;;
42742;SDS011;28397;44.552;-0.848;2023-10-13T04:22:25;10.20;;;8.18;;
42742;SDS011;28397;44.552;-0.848;2023-10-13T04:25:14;9.70;;;7.80;;
42742;SDS011;28397;44.552;-0.848;2023-10-13T04:28:12;9.15;;;7.63;;
42742;SDS011;28397;44.552;-0.848;2023-10-13T04:30:43;9.95;;;7.75;;
42742;SDS011;28397;44.552;-0.848;2023-10-13T04:38:46;9.70;;;7.38;;
42742;SDS011;28397;44.552;-0.848;2023-10-13T04:41:25;11.32;;;7.63;;
42742;SDS011;28397;44.552;-0.848;2023-10-13T04:44:04;13.07;;;7.03;;
42742;SDS011;28397;44.552;-0.848;2023-10-13T04:46:51;9.82;;;7.30;;
42742;SDS011;28397;44.552;-0.848;2023-10-13T04:49:20;11.00;;;7.50;;
42742;SDS011;28397;44.552;-0.848;2023-10-13T04:52:05;9.90;;;7.13;;
42742;SDS011;28397;44.552;-0.848;2023-10-13T04:54:34;9.20;;;6.63;;
42742;SDS011;28397;44.552;-0.848;2023-10-13T04:57:15;10.95;;;7.15;;
42742;SDS011;28397;44.552;-0.848;2023-10-13T04:59:45;7.93;;;6.88;;
42742;SDS011;28397;44.552;-0.848;2023-10-13T05:02:30;10.68;;;6.97;;
42742;SDS011;28397;44.552;-0.848;2023-10-13T05:05:07;9.73;;;6.82;;
42742;SDS011;28397;44.552;-0.848;2023-10-13T05:07:44;9.25;;;6.90;;
42742;SDS011;28397;44.552;-0.848;2023-10-13T05:10:29;10.63;;;6.80;;
42742;SDS011;28397;44.552;-0.848;2023-10-13T05:13:14;10.40;;;6.70;;
42742;SDS011;28397;44.552;-0.848;2023-10-13T05:15:58;14.73;;;6.90;;
42742;SDS011;28397;44.552;-0.848;2023-10-13T05:18:43;11.45;;;6.55;;
42742;SDS011;28397;44.552;-0.848;2023-10-13T05:21:27;12.65;;;7.38;;
42742;SDS011;28397;44.552;-0.848;2023-10-13T05:24:12;14.52;;;7.25;;
42742;SDS011;28397;44.552;-0.848;2023-10-13T05:26:56;11.02;;;6.28;;
42742;SDS011;28397;44.552;-0.848;2023-10-13T05:29:44;9.38;;;6.43;;
42742;SDS011;28397;44.552;-0.848;2023-10-13T05:32:29;10.15;;;6.50;;
42742;SDS011;28397;44.552;-0.848;2023-10-13T05:35:15;10.65;;;6.65;;
42742;SDS011;28397;44.552;-0.848;2023-10-13T05:38:00;10.95;;;6.53;;
42742;SDS011;28397;44.552;-0.848;2023-10-13T05:40:54;9.80;;;6.38;;
42742;SDS011;28397;44.552;-0.848;2023-10-13T05:43:40;13.25;;;6.53;;
42742;SDS011;28397;44.552;-0.848;2023-10-13T05:46:24;8.80;;;6.68;;
42742;SDS011;28397;44.552;-0.848;2023-10-13T05:48:55;8.95;;;6.47;;
42742;SDS011;28397;44.552;-0.848;2023-10-13T05:51:26;11.35;;;5.93;;
42742;SDS011;28397;44.552;-0.848;2023-10-13T05:54:12;10.32;;;6.35;;
42742;SDS011;28397;44.552;-0.848;2023-10-13T05:56:49;10.38;;;5.97;;
42742;SDS011;28397;44.552;-0.848;2023-10-13T05:59:37;10.02;;;5.90;;
42742;SDS011;28397;44.552;-0.848;2023-10-13T06:02:22;9.10;;;5.85;;
42742;SDS011;28397;44.552;-0.848;2023-10-13T06:05:08;10.60;;;6.15;;
42742;SDS011;28397;44.552;-0.848;2023-10-13T06:07:53;11.45;;;6.57;;
42742;SDS011;28397;44.552;-0.848;2023-10-13T06:10:38;9.52;;;6.38;;
42742;SDS011;28397;44.552;-0.848;2023-10-13T06:13:23;7.88;;;5.65;;
42742;SDS011;28397;44.552;-0.848;2023-10-13T06:16:08;10.52;;;6.10;;
42742;SDS011;28397;44.552;-0.848;2023-10-13T06:18:52;8.52;;;6.05;;
42742;SDS011;28397;44.552;-0.848;2023-10-13T06:21:37;9.18;;;5.90;;
42742;SDS011;28397;44.552;-0.848;2023-10-13T06:24:21;8.13;;;5.80;;
42742;SDS011;28397;44.552;-0.848;2023-10-13T06:27:06;10.60;;;5.78;;
42742;SDS011;28397;44.552;-0.848;2023-10-13T06:29:50;8.45;;;5.70;;
42742;SDS011;28397;44.552;-0.848;2023-10-13T06:32:18;11.23;;;5.72;;
42742;SDS011;28397;44.552;-0.848;2023-10-13T06:34:54;11.27;;;6.13;;
42742;SDS011;28397;44.552;-0.848;2023-10-13T06:37:26;14.10;;;5.63;;
42742;SDS011;28397;44.552;-0.848;2023-10-13T06:39:56;12.27;;;6.30;;
42742;SDS011;28397;44.552;-0.848;2023-10-13T06:42:35;10.65;;;5.85;;
42742;SDS011;28397;44.552;-0.848;2023-10-13T06:45:07;10.68;;;5.95;;
42742;SDS011;28397;44.552;-0.848;2023-10-13T06:47:37;11.40;;;5.90;;
42742;SDS011;28397;44.552;-0.848;2023-10-13T06:52:44;10.85;;;6.32;;
42742;SDS011;28397;44.552;-0.848;2023-10-13T06:55:14;12.82;;;6.10;;
42742;SDS011;28397;44.552;-0.848;2023-10-13T06:57:48;9.77;;;5.80;;
42742;SDS011;28397;44.552;-0.848;2023-10-13T07:00:16;8.02;;;5.57;;
42742;SDS011;28397;44.552;-0.848;2023-10-13T07:02:53;11.70;;;6.30;;
42742;SDS011;28397;44.552;-0.848;2023-10-13T07:05:19;9.60;;;5.88;;
42742;SDS011;28397;44.552;-0.848;2023-10-13T07:07:45;11.10;;;5.38;;
42742;SDS011;28397;44.552;-0.848;2023-10-13T07:10:13;9.40;;;5.90;;
42742;SDS011;28397;44.552;-0.848;2023-10-13T07:12:39;12.25;;;5.93;;
42742;SDS011;28397;44.552;-0.848;2023-10-13T07:15:14;10.32;;;5.63;;
42742;SDS011;28397;44.552;-0.848;2023-10-13T07:17:43;9.07;;;5.70;;
42742;SDS011;28397;44.552;-0.848;2023-10-13T07:20:10;10.05;;;5.82;;
42742;SDS011;28397;44.552;-0.848;2023-10-13T07:22:49;7.93;;;5.60;;
42742;SDS011;28397;44.552;-0.848;2023-10-13T07:25:32;14.43;;;5.57;;
42742;SDS011;28397;44.552;-0.848;2023-10-13T07:27:59;11.40;;;5.70;;
42742;SDS011;28397;44.552;-0.848;2023-10-13T07:30:25;10.52;;;6.10;;
42742;SDS011;28397;44.552;-0.848;2023-10-13T07:32:52;9.73;;;5.60;;
42742;SDS011;28397;44.552;-0.848;2023-10-13T07:35:22;11.15;;;5.68;;
42742;SDS011;28397;44.552;-0.848;2023-10-13T07:37:51;8.23;;;5.25;;
42742;SDS011;28397;44.552;-0.848;2023-10-13T07:40:20;9.50;;;5.32;;
42742;SDS011;28397;44.552;-0.848;2023-10-13T07:42:50;8.48;;;5.72;;
42742;SDS011;28397;44.552;-0.848;2023-10-13T07:45:16;10.38;;;5.88;;
42742;SDS011;28397;44.552;-0.848;2023-10-13T07:47:50;9.10;;;5.50;;
42742;SDS011;28397;44.552;-0.848;2023-10-13T07:50:18;11.35;;;5.45;;
42742;SDS011;28397;44.552;-0.848;2023-10-13T07:52:50;9.70;;;5.22;;
42742;SDS011;28397;44.552;-0.848;2023-10-13T07:55:48;8.48;;;5.43;;
42742;SDS011;28397;44.552;-0.848;2023-10-13T07:58:21;9.88;;;6.05;;
42742;SDS011;28397;44.552;-0.848;2023-10-13T08:00:53;11.27;;;5.03;;
42742;SDS011;28397;44.552;-0.848;2023-10-13T08:03:34;11.73;;;5.60;;
42742;SDS011;28397;44.552;-0.848;2023-10-13T08:06:09;6.88;;;5.50;;
42742;SDS011;28397;44.552;-0.848;2023-10-13T08:08:36;11.15;;;6.05;;
42742;SDS011;28397;44.552;-0.848;2023-10-13T08:16:22;10.65;;;5.28;;
42742;SDS011;28397;44.552;-0.848;2023-10-13T08:18:49;12.23;;;5.60;;
42742;SDS011;28397;44.552;-0.848;2023-10-13T08:21:15;11.68;;;6.13;;
42742;SDS011;28397;44.552;-0.848;2023-10-13T08:23:42;11.13;;;5.40;;
42742;SDS011;28397;44.552;-0.848;2023-10-13T08:26:24;10.88;;;5.10;;
42742;SDS011;28397;44.552;-0.848;2023-10-13T08:29:02;9.88;;;5.28;;
42742;SDS011;28397;44.552;-0.848;2023-10-13T08:31:44;8.32;;;5.40;;
42742;SDS011;28397;44.552;-0.848;2023-10-13T08:34:29;9.55;;;5.50;;
42742;SDS011;28397;44.552;-0.848;2023-10-13T08:37:29;12.57;;;5.10;;
42742;SDS011;28397;44.552;-0.848;2023-10-13T08:40:16;13.95;;;5.20;;
42742;SDS011;28397;44.552;-0.848;2023-10-13T08:42:48;5.97;;;4.88;;
42742;SDS011;28397;44.552;-0.848;2023-10-13T08:45:36;8.85;;;5.18;;
42742;SDS011;28397;44.552;-0.848;2023-10-13T08:48:03;8.55;;;4.95;;
42742;SDS011;28397;44.552;-0.848;2023-10-13T08:53:18;7.25;;;5.10;;
42742;SDS011;28397;44.552;-0.848;2023-10-13T08:56:02;8.18;;;5.28;;
42742;SDS011;28397;44.552;-0.848;2023-10-13T08:59:01;9.70;;;5.78;;
42742;SDS011;28397;44.552;-0.848;2023-10-13T09:01:31;12.05;;;5.70;;
42742;SDS011;28397;44.552;-0.848;2023-10-13T09:04:16;17.25;;;5.70;;
42742;SDS011;28397;44.552;-0.848;2023-10-13T09:06:44;52.42;;;7.75;;
42742;SDS011;28397;44.552;-0.848;2023-10-13T09:09:30;18.35;;;6.05;;
42742;SDS011;28397;44.552;-0.848;2023-10-13T09:12:11;10.70;;;5.18;;
42742;SDS011;28397;44.552;-0.848;2023-10-13T09:15:00;11.00;;;6.00;;
42742;SDS011;28397;44.552;-0.848;2023-10-13T09:17:31;9.98;;;5.55;;
42742;SDS011;28397;44.552;-0.848;2023-10-13T09:20:07;11.63;;;6.10;;
42742;SDS011;28397;44.552;-0.848;2023-10-13T09:25:27;8.75;;;5.50;;
42742;SDS011;28397;44.552;-0.848;2023-10-13T09:27:58;11.27;;;5.38;;
42742;SDS011;28397;44.552;-0.848;2023-10-13T09:30:25;9.63;;;5.13;;
42742;SDS011;28397;44.552;-0.848;2023-10-13T09:33:03;16.20;;;5.57;;
42742;SDS011;28397;44.552;-0.848;2023-10-13T09:35:30;10.52;;;5.30;;
42742;SDS011;28397;44.552;-0.848;2023-10-13T09:37:59;7.72;;;5.70;;
42742;SDS011;28397;44.552;-0.848;2023-10-13T09:40:28;8.90;;;5.38;;
42742;SDS011;28397;44.552;-0.848;2023-10-13T09:43:02;12.48;;;5.50;;
42742;SDS011;28397;44.552;-0.848;2023-10-13T09:45:33;10.75;;;5.72;;
42742;SDS011;28397;44.552;-0.848;2023-10-13T09:48:05;7.97;;;5.30;;
42742;SDS011;28397;44.552;-0.848;2023-10-13T09:50:41;7.47;;;5.00;;
42742;SDS011;28397;44.552;-0.848;2023-10-13T09:53:10;12.65;;;5.40;;
42742;SDS011;28397;44.552;-0.848;2023-10-13T09:55:42;12.50;;;5.40;;
42742;SDS011;28397;44.552;-0.848;2023-10-13T09:58:11;8.02;;;5.20;;
42742;SDS011;28397;44.552;-0.848;2023-10-13T10:00:50;10.32;;;5.50;;
42742;SDS011;28397;44.552;-0.848;2023-10-13T10:03:32;9.93;;;4.70;;
42742;SDS011;28397;44.552;-0.848;2023-10-13T10:06:20;11.07;;;5.50;;
42742;SDS011;28397;44.552;-0.848;2023-10-13T10:08:53;8.32;;;5.35;;
42742;SDS011;28397;44.552;-0.848;2023-10-13T10:14:28;73.45;;;21.38;;
42742;SDS011;28397;44.552;-0.848;2023-10-13T10:17:12;40.28;;;14.48;;
42742;SDS011;28397;44.552;-0.848;2023-10-13T10:19:52;22.95;;;10.73;;
42742;SDS011;28397;44.552;-0.848;2023-10-13T10:22:25;16.52;;;9.10;;
42742;SDS011;28397;44.552;-0.848;2023-10-13T10:25:09;18.48;;;9.30;;
42742;SDS011;28397;44.552;-0.848;2023-10-13T10:27:59;16.75;;;8.20;;
42742;SDS011;28397;44.552;-0.848;2023-10-13T10:30:31;12.40;;;6.25;;
42742;SDS011;28397;44.552;-0.848;2023-10-13T10:33:03;9.40;;;5.00;;
42742;SDS011;28397;44.552;-0.848;2023-10-13T10:35:59;10.13;;;4.68;;
42742;SDS011;28397;44.552;-0.848;2023-10-13T10:38:25;11.00;;;4.90;;
42742;SDS011;28397;44.552;-0.848;2023-10-13T10:41:00;10.05;;;4.47;;
42742;SDS011;28397;44.552;-0.848;2023-10-13T10:46:08;10.57;;;4.50;;
42742;SDS011;28397;44.552;-0.848;2023-10-13T10:48:36;7.53;;;3.78;;
42742;SDS011;28397;44.552;-0.848;2023-10-13T10:51:03;8.77;;;4.05;;
42742;SDS011;28397;44.552;-0.848;2023-10-13T10:53:33;12.15;;;4.70;;
42742;SDS011;28397;44.552;-0.848;2023-10-13T10:56:09;8.88;;;4.28;;
42742;SDS011;28397;44.552;-0.848;2023-10-13T10:58:54;8.80;;;4.00;;
42742;SDS011;28397;44.552;-0.848;2023-10-13T11:01:21;7.10;;;3.75;;
42742;SDS011;28397;44.552;-0.848;2023-10-13T11:03:59;14.40;;;4.15;;
42742;SDS011;28397;44.552;-0.848;2023-10-13T11:09:32;6.80;;;3.83;;
42742;SDS011;28397;44.552;-0.848;2023-10-13T11:12:13;12.15;;;4.00;;
42742;SDS011;28397;44.552;-0.848;2023-10-13T11:14:40;9.02;;;4.15;;
42742;SDS011;28397;44.552;-0.848;2023-10-13T11:17:23;10.23;;;4.13;;
42742;SDS011;28397;44.552;-0.848;2023-10-13T11:20:07;11.15;;;4.00;;
42742;SDS011;28397;44.552;-0.848;2023-10-13T11:22:41;10.80;;;4.05;;
42742;SDS011;28397;44.552;-0.848;2023-10-13T11:25:19;13.20;;;4.50;;
42742;SDS011;28397;44.552;-0.848;2023-10-13T11:27:54;10.27;;;3.95;;
42742;SDS011;28397;44.552;-0.848;2023-10-13T11:30:21;9.50;;;4.32;;
42742;SDS011;28397;44.552;-0.848;2023-10-13T11:33:01;9.55;;;3.97;;
42742;SDS011;28397;44.552;-0.848;2023-10-13T11:35:39;12.05;;;4.28;;
42742;SDS011;28397;44.552;-0.848;2023-10-13T11:38:18;9.40;;;4.32;;
42742;SDS011;28397;44.552;-0.848;2023-10-13T11:41:14;14.98;;;4.57;;
42742;SDS011;28397;44.552;-0.848;2023-10-13T11:46:15;12.85;;;4.70;;
42742;SDS011;28397;44.552;-0.848;2023-10-13T11:51:52;12.45;;;4.32;;
42742;SDS011;28397;44.552;-0.848;2023-10-13T11:54:27;10.15;;;4.50;;
42742;SDS011;28397;44.552;-0.848;2023-10-13T11:56:52;9.70;;;4.45;;
42742;SDS011;28397;44.552;-0.848;2023-10-13T11:59:23;11.55;;;4.40;;
42742;SDS011;28397;44.552;-0.848;2023-10-13T12:01:52;12.50;;;4.90;;
42742;SDS011;28397;44.552;-0.848;2023-10-13T12:04:36;11.35;;;4.80;;
42742;SDS011;28397;44.552;-0.848;2023-10-13T12:07:08;10.05;;;4.95;;
42742;SDS011;28397;44.552;-0.848;2023-10-13T12:09:48;14.00;;;5.25;;
42742;SDS011;28397;44.552;-0.848;2023-10-13T12:14:46;10.27;;;5.00;;
42742;SDS011;28397;44.552;-0.848;2023-10-13T12:20:04;10.40;;;4.65;;
42742;SDS011;28397;44.552;-0.848;2023-10-13T12:22:35;11.25;;;4.75;;
42742;SDS011;28397;44.552;-0.848;2023-10-13T12:25:07;11.52;;;5.30;;
42742;SDS011;28397;44.552;-0.848;2023-10-13T12:28:05;12.18;;;5.20;;
42742;SDS011;28397;44.552;-0.848;2023-10-13T12:30:48;14.67;;;5.37;;
42742;SDS011;28397;44.552;-0.848;2023-10-13T12:33:15;10.90;;;5.22;;
42742;SDS011;28397;44.552;-0.848;2023-10-13T12:35:49;13.30;;;5.43;;
42742;SDS011;28397;44.552;-0.848;2023-10-13T12:38:55;13.82;;;6.07;;
42742;SDS011;28397;44.552;-0.848;2023-10-13T12:41:33;13.85;;;5.38;;
42742;SDS011;28397;44.552;-0.848;2023-10-13T12:44:17;11.80;;;5.50;;
42742;SDS011;28397;44.552;-0.848;2023-10-13T12:47:01;15.05;;;5.68;;
42742;SDS011;28397;44.552;-0.848;2023-10-13T12:49:45;12.82;;;5.43;;
42742;SDS011;28397;44.552;-0.848;2023-10-13T12:52:14;14.20;;;5.97;;
42742;SDS011;28397;44.552;-0.848;2023-10-13T12:54:50;13.55;;;5.75;;
42742;SDS011;28397;44.552;-0.848;2023-10-13T12:57:25;11.75;;;5.60;;
42742;SDS011;28397;44.552;-0.848;2023-10-13T12:59:52;13.68;;;5.43;;
42742;SDS011;28397;44.552;-0.848;2023-10-13T13:02:22;12.40;;;5.10;;
42742;SDS011;28397;44.552;-0.848;2023-10-13T13:07:41;15.35;;;5.78;;
42742;SDS011;28397;44.552;-0.848;2023-10-13T13:10:17;13.13;;;5.28;;
42742;SDS011;28397;44.552;-0.848;2023-10-13T13:12:43;12.18;;;4.70;;
42742;SDS011;28397;44.552;-0.848;2023-10-13T13:15:09;12.00;;;5.18;;
42742;SDS011;28397;44.552;-0.848;2023-10-13T13:17:37;10.05;;;5.47;;
42742;SDS011;28397;44.552;-0.848;2023-10-13T13:20:07;11.15;;;5.60;;
42742;SDS011;28397;44.552;-0.848;2023-10-13T13:22:40;13.32;;;5.18;;
42742;SDS011;28397;44.552;-0.848;2023-10-13T13:25:06;12.93;;;5.25;;
42742;SDS011;28397;44.552;-0.848;2023-10-13T13:27:33;13.60;;;5.10;;
42742;SDS011;28397;44.552;-0.848;2023-10-13T13:29:59;12.65;;;5.50;;
42742;SDS011;28397;44.552;-0.848;2023-10-13T13:32:25;11.43;;;5.03;;
42742;SDS011;28397;44.552;-0.848;2023-10-13T13:34:53;11.38;;;4.82;;
42742;SDS011;28397;44.552;-0.848;2023-10-13T13:37:30;9.30;;;4.97;;
42742;SDS011;28397;44.552;-0.848;2023-10-13T13:39:56;15.07;;;5.75;;
42742;SDS011;28397;44.552;-0.848;2023-10-13T13:42:38;14.07;;;5.80;;
42742;SDS011;28397;44.552;-0.848;2023-10-13T13:45:06;14.85;;;5.65;;
42742;SDS011;28397;44.552;-0.848;2023-10-13T13:47:36;13.02;;;5.25;;
42742;SDS011;28397;44.552;-0.848;2023-10-13T13:50:02;14.65;;;5.35;;
42742;SDS011;28397;44.552;-0.848;2023-10-13T13:52:39;12.25;;;5.20;;
42742;SDS011;28397;44.552;-0.848;2023-10-13T13:55:11;15.18;;;5.45;;
42742;SDS011;28397;44.552;-0.848;2023-10-13T13:57:42;14.48;;;5.30;;
42742;SDS011;28397;44.552;-0.848;2023-10-13T14:00:10;14.35;;;6.07;;
42742;SDS011;28397;44.552;-0.848;2023-10-13T14:02:43;18.17;;;6.22;;
42742;SDS011;28397;44.552;-0.848;2023-10-13T14:05:15;11.18;;;5.20;;
42742;SDS011;28397;44.552;-0.848;2023-10-13T14:07:42;11.88;;;5.68;;
42742;SDS011;28397;44.552;-0.848;2023-10-13T14:10:13;13.10;;;5.95;;
42742;SDS011;28397;44.552;-0.848;2023-10-13T14:13:19;14.20;;;5.85;;
42742;SDS011;28397;44.552;-0.848;2023-10-13T14:15:47;16.08;;;5.90;;
42742;SDS011;28397;44.552;-0.848;2023-10-13T14:18:13;15.70;;;5.72;;
42742;SDS011;28397;44.552;-0.848;2023-10-13T14:20:41;14.85;;;5.75;;
42742;SDS011;28397;44.552;-0.848;2023-10-13T14:23:08;15.82;;;6.47;;
42742;SDS011;28397;44.552;-0.848;2023-10-13T14:25:37;12.45;;;5.72;;
42742;SDS011;28397;44.552;-0.848;2023-10-13T14:28:06;17.58;;;5.75;;
42742;SDS011;28397;44.552;-0.848;2023-10-13T14:30:32;16.63;;;6.05;;
42742;SDS011;28397;44.552;-0.848;2023-10-13T14:32:58;16.17;;;5.53;;
42742;SDS011;28397;44.552;-0.848;2023-10-13T14:35:24;18.52;;;6.10;;
42742;SDS011;28397;44.552;-0.848;2023-10-13T14:37:54;14.48;;;5.68;;
42742;SDS011;28397;44.552;-0.848;2023-10-13T14:40:20;14.75;;;5.65;;
42742;SDS011;28397;44.552;-0.848;2023-10-13T14:42:47;20.25;;;6.40;;
42742;SDS011;28397;44.552;-0.848;2023-10-13T14:45:13;15.48;;;5.85;;
42742;SDS011;28397;44.552;-0.848;2023-10-13T14:47:41;15.35;;;6.30;;
42742;SDS011;28397;44.552;-0.848;2023-10-13T14:50:08;10.90;;;5.90;;
42742;SDS011;28397;44.552;-0.848;2023-10-13T14:52:42;12.90;;;5.57;;
42742;SDS011;28397;44.552;-0.848;2023-10-13T14:55:08;16.83;;;6.07;;
42742;SDS011;28397;44.552;-0.848;2023-10-13T14:57:44;18.77;;;6.25;;
42742;SDS011;28397;44.552;-0.848;2023-10-13T15:00:11;15.60;;;5.72;;
42742;SDS011;28397;44.552;-0.848;2023-10-13T15:02:39;14.30;;;6.03;;
42742;SDS011;28397;44.552;-0.848;2023-10-13T15:05:08;13.60;;;5.32;;
42742;SDS011;28397;44.552;-0.848;2023-10-13T15:07:44;15.15;;;6.00;;
42742;SDS011;28397;44.552;-0.848;2023-10-13T15:10:11;15.38;;;5.93;;
42742;SDS011;28397;44.552;-0.848;2023-10-13T15:12:43;15.70;;;6.18;;
42742;SDS011;28397;44.552;-0.848;2023-10-13T15:15:13;13.32;;;5.20;;
42742;SDS011;28397;44.552;-0.848;2023-10-13T15:17:41;16.27;;;5.30;;
42742;SDS011;28397;44.552;-0.848;2023-10-13T15:20:08;16.08;;;5.68;;
42742;SDS011;28397;44.552;-0.848;2023-10-13T15:22:43;15.65;;;5.78;;
42742;SDS011;28397;44.552;-0.848;2023-10-13T15:25:10;13.85;;;6.03;;
42742;SDS011;28397;44.552;-0.848;2023-10-13T15:28:00;18.83;;;5.95;;
42742;SDS011;28397;44.552;-0.848;2023-10-13T15:30:33;14.80;;;5.65;;
42742;SDS011;28397;44.552;-0.848;2023-10-13T15:33:21;20.42;;;10.80;;
42742;SDS011;28397;44.552;-0.848;2023-10-13T15:35:48;26.17;;;17.30;;
42742;SDS011;28397;44.552;-0.848;2023-10-13T15:38:14;26.92;;;20.05;;
42742;SDS011;28397;44.552;-0.848;2023-10-13T15:40:42;24.05;;;16.17;;
42742;SDS011;28397;44.552;-0.848;2023-10-13T15:43:09;15.02;;;8.82;;
42742;SDS011;28397;44.552;-0.848;2023-10-13T15:45:35;22.92;;;9.57;;
42742;SDS011;28397;44.552;-0.848;2023-10-13T15:48:04;20.20;;;11.85;;